UPS613 LTAI-OJAQ
Flight info
| Callsign | UPS613 |
|---|---|
| Flight time | 1h 2m |
| Altitude | 33000 |
| Route | SAFTA L324 LAKTO L560 SERMA L550 KARIK B411 ULINA DCT TAMIM |
| Aircraft | A306/H-SDE3FGHIRWY/LB1 |
Departure
| Time | 2026-04-25 14:40 |
|---|---|
| Airport | Antalya International Airport (LTAI) |
Arrival
| Time | 2026-04-25 15:43 |
|---|---|
| Airport | King Hussein International Airport (OJAQ) |
| Time | Latitude | Longitude | Altitude | Speed | Heading |
|---|---|---|---|---|---|
| 2026-04-25 14:10 | 36.89029 | 30.80504 | 182 ft | 0 kts | 96° |
| 2026-04-25 14:28 | 36.89029 | 30.80503 | 182 ft | 2 kts | 96° |
| 2026-04-25 14:28 | 36.89030 | 30.80482 | 182 ft | 2 kts | 96° |
| 2026-04-25 14:29 | 36.89032 | 30.80462 | 182 ft | 2 kts | 96° |
| 2026-04-25 14:29 | 36.89034 | 30.80441 | 182 ft | 2 kts | 95° |
| 2026-04-25 14:29 | 36.89035 | 30.80421 | 182 ft | 2 kts | 96° |
| 2026-04-25 14:29 | 36.89032 | 30.80402 | 182 ft | 2 kts | 30° |
| 2026-04-25 14:30 | 36.89017 | 30.80394 | 182 ft | 2 kts | 11° |
| 2026-04-25 14:30 | 36.88989 | 30.80390 | 182 ft | 1 kts | 5° |
| 2026-04-25 14:30 | 36.88988 | 30.80389 | 182 ft | 0 kts | 5° |
| 2026-04-25 14:32 | 36.88999 | 30.80391 | 182 ft | 9 kts | 5° |
| 2026-04-25 14:32 | 36.89084 | 30.80403 | 182 ft | 12 kts | 9° |
| 2026-04-25 14:32 | 36.89125 | 30.80442 | 182 ft | 4 kts | 76° |
| 2026-04-25 14:32 | 36.89126 | 30.80470 | 182 ft | 2 kts | 93° |
| 2026-04-25 14:33 | 36.89124 | 30.80493 | 182 ft | 4 kts | 94° |
| 2026-04-25 14:33 | 36.89121 | 30.80538 | 182 ft | 7 kts | 97° |
| 2026-04-25 14:33 | 36.89121 | 30.80613 | 182 ft | 10 kts | 62° |
| 2026-04-25 14:33 | 36.89191 | 30.80635 | 182 ft | 13 kts | 5° |
| 2026-04-25 14:34 | 36.89292 | 30.80649 | 182 ft | 17 kts | 7° |
| 2026-04-25 14:34 | 36.89373 | 30.80661 | 182 ft | 19 kts | 6° |
| 2026-04-25 14:34 | 36.89517 | 30.80680 | 182 ft | 23 kts | 6° |
| 2026-04-25 14:34 | 36.89684 | 30.80703 | 182 ft | 25 kts | 6° |
| 2026-04-25 14:35 | 36.89805 | 30.80720 | 182 ft | 27 kts | 6° |
| 2026-04-25 14:35 | 36.90073 | 30.80758 | 183 ft | 30 kts | 6° |
| 2026-04-25 14:35 | 36.90291 | 30.80790 | 182 ft | 33 kts | 7° |
| 2026-04-25 14:35 | 36.90524 | 30.80821 | 182 ft | 35 kts | 6° |
| 2026-04-25 14:36 | 36.90756 | 30.80851 | 182 ft | 32 kts | 6° |
| 2026-04-25 14:36 | 36.90971 | 30.80881 | 182 ft | 30 kts | 6° |
| 2026-04-25 14:36 | 36.91120 | 30.80904 | 182 ft | 7 kts | 18° |
| 2026-04-25 14:36 | 36.91137 | 30.80939 | 182 ft | 4 kts | 78° |
| 2026-04-25 14:37 | 36.91138 | 30.80971 | 183 ft | 0 kts | 98° |
| 2026-04-25 14:39 | 36.91132 | 30.81034 | 198 ft | 17 kts | 96° |
| 2026-04-25 14:39 | 36.91097 | 30.81132 | 198 ft | 5 kts | 176° |
| 2026-04-25 14:39 | 36.90917 | 30.81112 | 199 ft | 58 kts | 185° |
| 2026-04-25 14:39 | 36.90301 | 30.81029 | 198 ft | 119 kts | 186° |
| 2026-04-25 14:40 | 36.89293 | 30.80891 | 198 ft | 172 kts | 186° |
| 2026-04-25 14:40 | 36.87991 | 30.80717 | 588 ft | 197 kts | 186° |
| 2026-04-25 14:40 | 36.86576 | 30.80714 | 1370 ft | 209 kts | 169° |
| 2026-04-25 14:40 | 36.85186 | 30.81202 | 2432 ft | 206 kts | 162° |
| 2026-04-25 14:41 | 36.83776 | 30.81718 | 3258 ft | 220 kts | 163° |
| 2026-04-25 14:41 | 36.82226 | 30.82254 | 3741 ft | 241 kts | 163° |
| 2026-04-25 14:41 | 36.80536 | 30.82788 | 4095 ft | 259 kts | 173° |
| 2026-04-25 14:41 | 36.78701 | 30.82767 | 4659 ft | 266 kts | 179° |
| 2026-04-25 14:42 | 36.76868 | 30.83018 | 5307 ft | 271 kts | 169° |
| 2026-04-25 14:42 | 36.75620 | 30.83356 | 5873 ft | 272 kts | 167° |
| 2026-04-25 14:42 | 36.73186 | 30.84179 | 6981 ft | 275 kts | 165° |
| 2026-04-25 14:42 | 36.71330 | 30.84834 | 7885 ft | 280 kts | 166° |
| 2026-04-25 14:43 | 36.69442 | 30.85474 | 8931 ft | 280 kts | 167° |
| 2026-04-25 14:43 | 36.67547 | 30.86085 | 9790 ft | 283 kts | 168° |
| 2026-04-25 14:43 | 36.65603 | 30.86679 | 10333 ft | 295 kts | 169° |
| 2026-04-25 14:43 | 36.63542 | 30.87283 | 10610 ft | 313 kts | 169° |
| 2026-04-25 14:44 | 36.61259 | 30.87939 | 10904 ft | 331 kts | 169° |
| 2026-04-25 14:44 | 36.56575 | 30.89279 | 11579 ft | 358 kts | 169° |
| 2026-04-25 14:44 | 36.51359 | 30.90783 | 12590 ft | 374 kts | 168° |
| 2026-04-25 14:44 | 36.41040 | 30.93767 | 14941 ft | 385 kts | 168° |
| 2026-04-25 14:45 | 36.30457 | 30.96810 | 17256 ft | 394 kts | 168° |
| 2026-04-25 14:45 | 36.19625 | 30.99915 | 19267 ft | 405 kts | 168° |
| 2026-04-25 14:45 | 36.08489 | 31.03099 | 21019 ft | 416 kts | 169° |
| 2026-04-25 14:45 | 35.97079 | 31.06352 | 22679 ft | 425 kts | 169° |
| 2026-04-25 14:46 | 35.85399 | 31.09673 | 24085 ft | 435 kts | 169° |
| 2026-04-25 14:46 | 35.73479 | 31.13051 | 25233 ft | 444 kts | 169° |
| 2026-04-25 14:46 | 35.61331 | 31.16483 | 26296 ft | 452 kts | 169° |
| 2026-04-25 14:46 | 35.49004 | 31.19955 | 27454 ft | 455 kts | 169° |
| 2026-04-25 14:47 | 35.36656 | 31.23423 | 28667 ft | 456 kts | 169° |
| 2026-04-25 14:47 | 35.29001 | 31.25567 | 29453 ft | 455 kts | 169° |
| 2026-04-25 14:47 | 35.24486 | 31.26829 | 29900 ft | 455 kts | 169° |
| 2026-04-25 14:47 | 35.19050 | 31.28347 | 30432 ft | 453 kts | 169° |
| 2026-04-25 14:48 | 35.06788 | 31.31763 | 31488 ft | 450 kts | 169° |
| 2026-04-25 14:48 | 34.94589 | 31.35152 | 32514 ft | 448 kts | 170° |
| 2026-04-25 14:48 | 34.86620 | 31.37359 | 32921 ft | 450 kts | 170° |
| 2026-04-25 14:48 | 34.83571 | 31.38202 | 32917 ft | 449 kts | 170° |
| 2026-04-25 14:49 | 34.77483 | 31.39885 | 32916 ft | 447 kts | 170° |
| 2026-04-25 14:49 | 34.71407 | 31.41562 | 32910 ft | 448 kts | 170° |
| 2026-04-25 14:50 | 34.65329 | 31.43236 | 32912 ft | 448 kts | 170° |
| 2026-04-25 14:50 | 34.59285 | 31.44899 | 32913 ft | 448 kts | 170° |
| 2026-04-25 14:51 | 34.53204 | 31.46570 | 32914 ft | 448 kts | 170° |
| 2026-04-25 14:51 | 34.47121 | 31.48238 | 32915 ft | 448 kts | 170° |
| 2026-04-25 14:52 | 34.41033 | 31.49906 | 32910 ft | 449 kts | 170° |
| 2026-04-25 14:52 | 34.35963 | 31.51292 | 32908 ft | 449 kts | 170° |
| 2026-04-25 14:53 | 34.28839 | 31.53238 | 32915 ft | 449 kts | 171° |
| 2026-04-25 14:53 | 34.18785 | 31.55978 | 32915 ft | 450 kts | 171° |
| 2026-04-25 14:54 | 34.06604 | 31.59289 | 32909 ft | 450 kts | 171° |
| 2026-04-25 14:54 | 33.94381 | 31.62601 | 32912 ft | 451 kts | 171° |
| 2026-04-25 14:55 | 33.82133 | 31.65911 | 32917 ft | 451 kts | 171° |
| 2026-04-25 14:55 | 33.69983 | 31.69986 | 32911 ft | 455 kts | 166° |
| 2026-04-25 14:56 | 33.57883 | 31.74480 | 32909 ft | 455 kts | 167° |
| 2026-04-25 14:56 | 33.45739 | 31.78869 | 32903 ft | 456 kts | 167° |
| 2026-04-25 14:57 | 33.33579 | 31.83251 | 32904 ft | 456 kts | 167° |
| 2026-04-25 14:57 | 33.21414 | 31.87624 | 32903 ft | 457 kts | 167° |
| 2026-04-25 14:58 | 33.09224 | 31.91992 | 32902 ft | 457 kts | 167° |
| 2026-04-25 14:58 | 32.97039 | 31.96347 | 32914 ft | 457 kts | 168° |
| 2026-04-25 14:59 | 32.88178 | 31.99506 | 32903 ft | 457 kts | 168° |
| 2026-04-25 14:59 | 32.82074 | 32.01677 | 32898 ft | 458 kts | 168° |
| 2026-04-25 15:00 | 32.75552 | 32.03995 | 32901 ft | 458 kts | 168° |
| 2026-04-25 15:00 | 32.63500 | 32.08624 | 32898 ft | 464 kts | 159° |
| 2026-04-25 15:01 | 32.52674 | 32.17321 | 32894 ft | 472 kts | 149° |
| 2026-04-25 15:01 | 32.42015 | 32.26424 | 32895 ft | 472 kts | 150° |
| 2026-04-25 15:02 | 32.31319 | 32.35462 | 32897 ft | 472 kts | 150° |
| 2026-04-25 15:02 | 32.20744 | 32.44373 | 32895 ft | 472 kts | 151° |
| 2026-04-25 15:03 | 32.10027 | 32.53374 | 32894 ft | 473 kts | 151° |
| 2026-04-25 15:03 | 31.99342 | 32.62319 | 32907 ft | 474 kts | 151° |
| 2026-04-25 15:04 | 31.88564 | 32.71315 | 32898 ft | 475 kts | 152° |
| 2026-04-25 15:04 | 31.77759 | 32.80308 | 32899 ft | 475 kts | 152° |
| 2026-04-25 15:05 | 31.66942 | 32.89284 | 32899 ft | 476 kts | 152° |
| 2026-04-25 15:06 | 31.50651 | 33.02752 | 32895 ft | 478 kts | 152° |
| 2026-04-25 15:06 | 31.39766 | 33.11720 | 32891 ft | 478 kts | 152° |
| 2026-04-25 15:07 | 31.28390 | 33.19530 | 32890 ft | 472 kts | 158° |
| 2026-04-25 15:07 | 31.16814 | 33.26802 | 32892 ft | 473 kts | 158° |
| 2026-04-25 15:08 | 31.05283 | 33.34050 | 32890 ft | 474 kts | 158° |
| 2026-04-25 15:08 | 30.93674 | 33.41329 | 32889 ft | 474 kts | 158° |
| 2026-04-25 15:09 | 30.82045 | 33.48601 | 32884 ft | 475 kts | 158° |
| 2026-04-25 15:09 | 30.64539 | 33.59510 | 32875 ft | 476 kts | 158° |
| 2026-04-25 15:10 | 30.52835 | 33.66776 | 32857 ft | 477 kts | 158° |
| 2026-04-25 15:11 | 30.35257 | 33.77654 | 32875 ft | 478 kts | 158° |
| 2026-04-25 15:11 | 30.23573 | 33.84860 | 32862 ft | 479 kts | 159° |
| 2026-04-25 15:12 | 30.05868 | 33.95741 | 32870 ft | 481 kts | 159° |
| 2026-04-25 15:12 | 29.97953 | 34.00591 | 32869 ft | 481 kts | 159° |
| 2026-04-25 15:13 | 29.76237 | 34.13854 | 32873 ft | 483 kts | 159° |
| 2026-04-25 15:14 | 29.64962 | 34.22410 | 32901 ft | 504 kts | 136° |
| 2026-04-25 15:14 | 29.61486 | 34.29504 | 32895 ft | 520 kts | 111° |
| 2026-04-25 15:14 | 29.60595 | 34.37805 | 32895 ft | 528 kts | 92° |
| 2026-04-25 15:14 | 29.60246 | 34.43126 | 32862 ft | 524 kts | 106° |
| 2026-04-25 15:15 | 29.59151 | 34.47088 | 32882 ft | 518 kts | 116° |
| 2026-04-25 15:15 | 29.56170 | 34.54613 | 32880 ft | 518 kts | 120° |
| 2026-04-25 15:16 | 29.53190 | 34.62251 | 32872 ft | 520 kts | 117° |
| 2026-04-25 15:16 | 29.46305 | 34.82524 | 32859 ft | 522 kts | 115° |
| 2026-04-25 15:17 | 29.42198 | 34.98473 | 32879 ft | 531 kts | 89° |
| 2026-04-25 15:17 | 29.43738 | 35.06642 | 32864 ft | 531 kts | 73° |
| 2026-04-25 15:18 | 29.46472 | 35.18420 | 32864 ft | 532 kts | 74° |
| 2026-04-25 15:18 | 29.49373 | 35.30722 | 32882 ft | 533 kts | 74° |
| 2026-04-25 15:19 | 29.50665 | 35.36224 | 32888 ft | 533 kts | 75° |
| 2026-04-25 15:19 | 29.53231 | 35.47191 | 32898 ft | 534 kts | 75° |
| 2026-04-25 15:20 | 29.54829 | 35.54036 | 32896 ft | 533 kts | 75° |
| 2026-04-25 15:20 | 29.57066 | 35.63626 | 32896 ft | 534 kts | 75° |
| 2026-04-25 15:21 | 29.58667 | 35.70527 | 32893 ft | 533 kts | 75° |
| 2026-04-25 15:21 | 29.59681 | 35.78898 | 32888 ft | 528 kts | 97° |
| 2026-04-25 15:22 | 29.58967 | 35.82942 | 32890 ft | 520 kts | 113° |
| 2026-04-25 15:22 | 29.57101 | 35.87171 | 32883 ft | 507 kts | 132° |
| 2026-04-25 15:22 | 29.54745 | 35.90098 | 32882 ft | 492 kts | 148° |
| 2026-04-25 15:22 | 29.51912 | 35.92187 | 32885 ft | 478 kts | 162° |
| 2026-04-25 15:23 | 29.48832 | 35.93437 | 32881 ft | 464 kts | 175° |
| 2026-04-25 15:23 | 29.45669 | 35.93865 | 32879 ft | 451 kts | 188° |
| 2026-04-25 15:23 | 29.42583 | 35.93506 | 32880 ft | 439 kts | 200° |
| 2026-04-25 15:23 | 29.39718 | 35.92439 | 32880 ft | 428 kts | 211° |
| 2026-04-25 15:24 | 29.35012 | 35.88559 | 32884 ft | 412 kts | 232° |
| 2026-04-25 15:24 | 29.33290 | 35.85962 | 32580 ft | 406 kts | 241° |
| 2026-04-25 15:24 | 29.32423 | 35.84075 | 32130 ft | 403 kts | 248° |
| 2026-04-25 15:25 | 29.31376 | 35.79924 | 30899 ft | 410 kts | 262° |
| 2026-04-25 15:25 | 29.31264 | 35.76693 | 30609 ft | 416 kts | 271° |
| 2026-04-25 15:25 | 29.31698 | 35.73367 | 30379 ft | 429 kts | 281° |
| 2026-04-25 15:25 | 29.32746 | 35.70132 | 30154 ft | 439 kts | 292° |
| 2026-04-25 15:26 | 29.34404 | 35.67165 | 29909 ft | 448 kts | 304° |
| 2026-04-25 15:26 | 29.36601 | 35.64587 | 29536 ft | 454 kts | 313° |
| 2026-04-25 15:26 | 29.38976 | 35.62259 | 28955 ft | 440 kts | 315° |
| 2026-04-25 15:26 | 29.41276 | 35.60068 | 28401 ft | 420 kts | 315° |
| 2026-04-25 15:27 | 29.43477 | 35.57961 | 27864 ft | 404 kts | 314° |
| 2026-04-25 15:27 | 29.45592 | 35.55921 | 27330 ft | 390 kts | 314° |
| 2026-04-25 15:27 | 29.49620 | 35.52004 | 26339 ft | 374 kts | 314° |
| 2026-04-25 15:28 | 29.51597 | 35.50073 | 25834 ft | 372 kts | 314° |
| 2026-04-25 15:28 | 29.53553 | 35.48141 | 25362 ft | 368 kts | 313° |
| 2026-04-25 15:28 | 29.55423 | 35.46222 | 24988 ft | 362 kts | 313° |
| 2026-04-25 15:28 | 29.57294 | 35.44282 | 24458 ft | 361 kts | 313° |
| 2026-04-25 15:29 | 29.59157 | 35.42346 | 23901 ft | 362 kts | 313° |
| 2026-04-25 15:29 | 29.61017 | 35.40412 | 23321 ft | 359 kts | 313° |
| 2026-04-25 15:29 | 29.62805 | 35.38561 | 22516 ft | 356 kts | 313° |
| 2026-04-25 15:29 | 29.64658 | 35.36637 | 21703 ft | 353 kts | 313° |
| 2026-04-25 15:30 | 29.66470 | 35.34753 | 20938 ft | 350 kts | 313° |
| 2026-04-25 15:30 | 29.68269 | 35.32882 | 20209 ft | 346 kts | 313° |
| 2026-04-25 15:30 | 29.70044 | 35.31035 | 19461 ft | 344 kts | 314° |
| 2026-04-25 15:30 | 29.71833 | 35.29222 | 18736 ft | 342 kts | 316° |
| 2026-04-25 15:31 | 29.73703 | 35.27522 | 18013 ft | 341 kts | 318° |
| 2026-04-25 15:31 | 29.75571 | 35.25875 | 17316 ft | 336 kts | 319° |
| 2026-04-25 15:31 | 29.77416 | 35.24248 | 16613 ft | 332 kts | 318° |
| 2026-04-25 15:31 | 29.79235 | 35.22640 | 15920 ft | 327 kts | 319° |
| 2026-04-25 15:32 | 29.81031 | 35.21055 | 15244 ft | 323 kts | 319° |
| 2026-04-25 15:32 | 29.82806 | 35.19487 | 14603 ft | 319 kts | 319° |
| 2026-04-25 15:32 | 29.84546 | 35.17946 | 14072 ft | 311 kts | 319° |
| 2026-04-25 15:33 | 29.87857 | 35.15013 | 13073 ft | 294 kts | 319° |
| 2026-04-25 15:33 | 29.89459 | 35.13595 | 12572 ft | 287 kts | 318° |
| 2026-04-25 15:33 | 29.91031 | 35.12238 | 12248 ft | 284 kts | 323° |
| 2026-04-25 15:33 | 29.92901 | 35.11275 | 12015 ft | 306 kts | 346° |
| 2026-04-25 15:34 | 29.95040 | 35.11366 | 11772 ft | 314 kts | 15° |
| 2026-04-25 15:34 | 29.96903 | 35.12625 | 11516 ft | 312 kts | 45° |
| 2026-04-25 15:34 | 29.98050 | 35.14712 | 11136 ft | 309 kts | 73° |
| 2026-04-25 15:34 | 29.98297 | 35.16316 | 10688 ft | 305 kts | 92° |
| 2026-04-25 15:35 | 29.96039 | 35.21021 | 8977 ft | 291 kts | 143° |
| 2026-04-25 15:35 | 29.94364 | 35.22283 | 8205 ft | 285 kts | 161° |
| 2026-04-25 15:35 | 29.92473 | 35.22798 | 7651 ft | 274 kts | 177° |
| 2026-04-25 15:36 | 29.88853 | 35.22377 | 6938 ft | 261 kts | 214° |
| 2026-04-25 15:36 | 29.87397 | 35.21156 | 6611 ft | 257 kts | 222° |
| 2026-04-25 15:36 | 29.86055 | 35.19831 | 6277 ft | 251 kts | 225° |
| 2026-04-25 15:37 | 29.84974 | 35.18310 | 5907 ft | 243 kts | 247° |
| 2026-04-25 15:37 | 29.84513 | 35.16484 | 5548 ft | 235 kts | 264° |
| 2026-04-25 15:37 | 29.84314 | 35.14621 | 5176 ft | 233 kts | 267° |
| 2026-04-25 15:37 | 29.84148 | 35.12785 | 5013 ft | 227 kts | 266° |
| 2026-04-25 15:38 | 29.83915 | 35.11037 | 4966 ft | 216 kts | 252° |
| 2026-04-25 15:38 | 29.83022 | 35.09717 | 4977 ft | 206 kts | 224° |
| 2026-04-25 15:38 | 29.81795 | 35.08945 | 4992 ft | 200 kts | 205° |
| 2026-04-25 15:38 | 29.80501 | 35.08495 | 4988 ft | 188 kts | 201° |
| 2026-04-25 15:39 | 29.79276 | 35.08129 | 4874 ft | 177 kts | 201° |
| 2026-04-25 15:39 | 29.78058 | 35.07750 | 4391 ft | 189 kts | 201° |
| 2026-04-25 15:39 | 29.76778 | 35.07316 | 4054 ft | 192 kts | 201° |
| 2026-04-25 15:39 | 29.75475 | 35.06943 | 3732 ft | 196 kts | 198° |
| 2026-04-25 15:40 | 29.74100 | 35.06529 | 3296 ft | 207 kts | 202° |
| 2026-04-25 15:40 | 29.73216 | 35.06148 | 3133 ft | 205 kts | 206° |
| 2026-04-25 15:40 | 29.71488 | 35.05361 | 2758 ft | 192 kts | 197° |
| 2026-04-25 15:40 | 29.70197 | 35.04942 | 2270 ft | 192 kts | 194° |
| 2026-04-25 15:41 | 29.68895 | 35.04571 | 1780 ft | 193 kts | 197° |
| 2026-04-25 15:41 | 29.67582 | 35.04174 | 1322 ft | 194 kts | 200° |
| 2026-04-25 15:41 | 29.66332 | 35.03651 | 939 ft | 190 kts | 205° |
| 2026-04-25 15:41 | 29.65140 | 35.03149 | 715 ft | 180 kts | 196° |
| 2026-04-25 15:42 | 29.63974 | 35.02781 | 423 ft | 166 kts | 198° |
| 2026-04-25 15:42 | 29.62861 | 35.02384 | 320 ft | 169 kts | 194° |
| 2026-04-25 15:42 | 29.61783 | 35.02020 | 197 ft | 152 kts | 197° |
| 2026-04-25 15:42 | 29.60943 | 35.01731 | 180 ft | 89 kts | 197° |
| 2026-04-25 15:43 | 29.60585 | 35.01602 | 180 ft | 39 kts | 196° |
| 2026-04-25 15:43 | 29.60343 | 35.01520 | 180 ft | 34 kts | 197° |
| 2026-04-25 15:43 | 29.60129 | 35.01448 | 179 ft | 30 kts | 192° |
| 2026-04-25 15:43 | 29.59951 | 35.01514 | 182 ft | 25 kts | 147° |
| 2026-04-25 15:44 | 29.59928 | 35.01569 | 182 ft | 1 kts | 50° |
| 2026-04-25 15:44 | 29.59949 | 35.01577 | 182 ft | 7 kts | 21° |
| 2026-04-25 15:44 | 29.60032 | 35.01610 | 182 ft | 18 kts | 19° |
| 2026-04-25 15:44 | 29.60167 | 35.01653 | 182 ft | 20 kts | 17° |
| 2026-04-25 15:45 | 29.60295 | 35.01699 | 182 ft | 18 kts | 14° |
| 2026-04-25 15:45 | 29.60410 | 35.01737 | 182 ft | 16 kts | 17° |
| 2026-04-25 15:45 | 29.60514 | 35.01774 | 182 ft | 15 kts | 17° |
| 2026-04-25 15:45 | 29.60545 | 35.01785 | 182 ft | 14 kts | 17° |
| 2026-04-25 15:46 | 29.60691 | 35.01836 | 182 ft | 12 kts | 17° |
| 2026-04-25 15:46 | 29.60766 | 35.01863 | 182 ft | 11 kts | 17° |
| 2026-04-25 15:46 | 29.60825 | 35.01884 | 182 ft | 8 kts | 17° |
| 2026-04-25 15:46 | 29.60877 | 35.01902 | 182 ft | 7 kts | 17° |
| 2026-04-25 15:47 | 29.60921 | 35.01918 | 182 ft | 6 kts | 17° |
| 2026-04-25 15:47 | 29.60957 | 35.01930 | 182 ft | 5 kts | 17° |
| 2026-04-25 15:47 | 29.60986 | 35.01940 | 182 ft | 4 kts | 17° |
| 2026-04-25 15:47 | 29.61008 | 35.01948 | 182 ft | 3 kts | 16° |
| 2026-04-25 15:48 | 29.61077 | 35.01972 | 182 ft | 15 kts | 17° |
| 2026-04-25 15:48 | 29.61173 | 35.02005 | 182 ft | 14 kts | 17° |
| 2026-04-25 15:48 | 29.61259 | 35.02034 | 182 ft | 12 kts | 17° |
| 2026-04-25 15:48 | 29.61335 | 35.02061 | 182 ft | 11 kts | 17° |
| 2026-04-25 15:49 | 29.61407 | 35.02087 | 182 ft | 11 kts | 17° |
| 2026-04-25 15:49 | 29.61481 | 35.02112 | 182 ft | 11 kts | 17° |
| 2026-04-25 15:49 | 29.61554 | 35.02139 | 182 ft | 11 kts | 17° |
| 2026-04-25 15:49 | 29.61625 | 35.02164 | 182 ft | 11 kts | 17° |
| 2026-04-25 15:50 | 29.61673 | 35.02181 | 183 ft | 11 kts | 17° |
| 2026-04-25 15:50 | 29.61784 | 35.02219 | 183 ft | 16 kts | 17° |
| 2026-04-25 15:50 | 29.61904 | 35.02260 | 183 ft | 20 kts | 17° |
| 2026-04-25 15:50 | 29.62000 | 35.02298 | 183 ft | 3 kts | 49° |
| 2026-04-25 15:51 | 29.62002 | 35.02312 | 183 ft | 2 kts | 83° |
| 2026-04-25 15:51 | 29.62002 | 35.02319 | 183 ft | 4 kts | 85° |
| 2026-04-25 15:51 | 29.61989 | 35.02381 | 182 ft | 4 kts | 106° |
| 2026-04-25 15:51 | 29.61981 | 35.02411 | 182 ft | 3 kts | 106° |
| 2026-04-25 15:52 | 29.61976 | 35.02432 | 182 ft | 2 kts | 107° |
| 2026-04-25 15:52 | 29.61973 | 35.02445 | 182 ft | 1 kts | 107° |
| 2026-04-25 15:52 | 29.61970 | 35.02454 | 175 ft | 2 kts | 107° |
| 2026-04-25 15:52 | 29.61968 | 35.02463 | 179 ft | 0 kts | 107° |